createdAt,value
2023-03-23T15:58:24.816Z,60.51
2023-03-23T16:00:53.714Z,60.45
2023-03-23T16:03:27.759Z,60.29
2023-03-23T16:05:56.059Z,60.47
2023-03-23T16:08:24.284Z,60.48
2023-03-23T16:10:52.422Z,60.41
2023-03-23T16:13:20.776Z,60.43
2023-03-23T16:15:49.340Z,60.16
2023-03-23T16:18:19.366Z,60.27
2023-03-23T16:20:49.270Z,60.58
2023-03-23T16:23:17.155Z,60.39
2023-03-23T16:25:45.500Z,60.23
2023-03-23T16:28:14.447Z,60.50
2023-03-23T16:30:43.509Z,60.38
2023-03-23T16:33:14.530Z,60.21
2023-03-23T16:35:43.627Z,59.92
2023-03-23T16:38:13.925Z,60.06
2023-03-23T16:40:42.572Z,59.97
2023-03-23T16:43:10.973Z,59.94
2023-03-23T16:45:40.501Z,60.13
2023-03-23T16:48:10.032Z,59.99
2023-03-23T16:50:38.717Z,59.63
2023-03-23T16:53:08.335Z,59.19
2023-03-23T16:55:38.387Z,59.40
2023-03-23T16:58:16.468Z,59.43
2023-03-23T17:00:46.891Z,59.18
2023-03-23T17:03:16.862Z,59.18
2023-03-23T17:05:45.619Z,59.26
2023-03-23T17:08:14.024Z,59.25
2023-03-23T17:10:43.784Z,59.19
2023-03-23T17:13:11.862Z,59.20
2023-03-23T17:15:40.130Z,58.94
2023-03-23T17:18:08.635Z,59.13
2023-03-23T17:20:37.039Z,59.02
2023-03-23T17:23:05.791Z,59.04
2023-03-23T17:25:34.009Z,59.18
2023-03-23T17:28:06.041Z,58.93
2023-03-23T17:30:35.094Z,58.74
2023-03-23T17:33:03.022Z,58.97
2023-03-23T17:35:31.221Z,58.77
2023-03-23T17:37:59.651Z,58.71
2023-03-23T17:40:27.880Z,58.85
2023-03-23T17:42:56.417Z,59.27
2023-03-23T17:45:30.460Z,59.13
2023-03-23T17:47:58.480Z,59.14
2023-03-23T17:50:26.462Z,58.89
2023-03-23T17:52:57.114Z,59.22
2023-03-23T17:55:25.597Z,58.97
2023-03-23T17:57:53.555Z,59.03
2023-03-23T18:00:22.300Z,58.75
2023-03-23T18:02:51.813Z,58.70
2023-03-23T18:05:20.042Z,58.35
2023-03-23T18:07:48.079Z,58.16
2023-03-23T18:10:16.138Z,58.25
2023-03-23T18:12:44.094Z,58.35
2023-03-23T18:15:13.335Z,58.23
2023-03-23T18:17:42.365Z,58.20
2023-03-23T18:20:11.988Z,58.56
2023-03-23T18:22:39.937Z,58.59
2023-03-23T18:25:08.026Z,58.37
2023-03-23T18:27:36.002Z,58.72
2023-03-23T18:30:04.026Z,58.39
2023-03-23T18:32:32.020Z,58.56
2023-03-23T18:34:59.922Z,58.38
2023-03-23T18:37:29.914Z,58.30
2023-03-23T18:39:57.778Z,58.46
2023-03-23T18:42:26.833Z,58.62
2023-03-23T18:44:55.140Z,58.47
2023-03-23T18:47:23.529Z,58.38
2023-03-23T18:49:55.242Z,58.28
2023-03-23T18:52:26.085Z,58.46
2023-03-23T18:54:55.394Z,58.34
2023-03-23T18:57:23.686Z,58.32
2023-03-23T18:59:51.853Z,58.40
2023-03-23T19:02:20.116Z,58.57
2023-03-23T19:04:48.051Z,58.49
2023-03-23T19:07:16.638Z,58.47
2023-03-23T19:09:46.154Z,58.74
2023-03-23T19:12:16.496Z,58.86
2023-03-23T19:14:44.831Z,58.65
2023-03-23T19:17:12.711Z,58.74
2023-03-23T19:19:43.031Z,58.86
2023-03-23T19:22:11.693Z,59.03
2023-03-23T19:24:39.606Z,58.87
2023-03-23T19:27:08.358Z,59.07
2023-03-23T19:29:37.925Z,59.07
2023-03-23T19:32:06.523Z,59.09
2023-03-23T19:34:34.683Z,58.79
2023-03-23T19:37:06.061Z,58.89
2023-03-23T19:39:38.553Z,58.59
2023-03-23T19:42:07.109Z,58.63
2023-03-23T19:44:35.278Z,58.35
2023-03-23T19:47:04.619Z,58.32
2023-03-23T19:49:32.817Z,58.51
2023-03-23T19:52:09.021Z,58.80
2023-03-23T19:54:38.519Z,58.71
2023-03-23T19:57:06.384Z,58.81
2023-03-23T19:59:34.808Z,58.70
2023-03-23T20:02:04.229Z,58.86
2023-03-23T20:04:32.288Z,59.02
2023-03-23T20:07:00.577Z,59.32
2023-03-23T20:09:28.703Z,59.23
2023-03-23T20:11:57.504Z,59.56
2023-03-23T20:14:26.545Z,59.57
2023-03-23T20:16:54.987Z,59.42
2023-03-23T20:19:24.541Z,59.29
2023-03-23T20:21:52.982Z,59.11
2023-03-23T20:24:21.205Z,58.92
2023-03-23T20:26:49.774Z,58.80
2023-03-23T20:29:17.655Z,58.69
2023-03-23T20:31:46.585Z,58.63
2023-03-23T20:34:17.217Z,58.37
2023-03-23T20:36:49.023Z,58.68
2023-03-23T20:39:21.409Z,58.46
2023-03-23T20:41:50.444Z,58.53
2023-03-23T20:44:20.031Z,58.73
2023-03-23T20:46:48.905Z,58.69
2023-03-23T20:49:17.910Z,58.70
2023-03-23T20:51:47.541Z,58.45
2023-03-23T20:54:15.866Z,58.54
2023-03-23T20:56:43.940Z,58.83
2023-03-23T20:59:12.069Z,58.78
2023-03-23T21:01:40.458Z,58.91
2023-03-23T21:04:15.683Z,58.77
2023-03-23T21:06:43.716Z,58.92
2023-03-23T21:09:13.734Z,59.01
2023-03-23T21:11:42.115Z,59.03
2023-03-23T21:14:10.269Z,59.08
2023-03-23T21:16:38.601Z,58.86
2023-03-23T21:19:07.472Z,58.89
2023-03-23T21:21:35.988Z,59.01
2023-03-23T21:24:04.117Z,59.29
2023-03-23T21:26:34.035Z,58.89
2023-03-23T21:29:02.043Z,58.81
2023-03-23T21:31:31.686Z,58.62
2023-03-23T21:33:59.904Z,58.78
2023-03-23T21:36:28.162Z,58.82
2023-03-23T21:38:56.854Z,58.56
2023-03-23T21:41:25.020Z,58.79
2023-03-23T21:43:54.761Z,58.97
2023-03-23T21:46:22.820Z,58.73
2023-03-23T21:48:51.925Z,59.06
2023-03-23T21:51:21.568Z,59.20
2023-03-23T21:53:50.319Z,58.96
2023-03-23T21:56:18.449Z,59.28
2023-03-23T21:58:46.329Z,59.05
2023-03-23T22:01:16.306Z,59.37
2023-03-23T22:03:44.368Z,59.07
2023-03-23T22:06:14.315Z,59.33
2023-03-23T22:08:43.245Z,59.08
2023-03-23T22:11:12.772Z,58.83
2023-03-23T22:13:40.747Z,58.63
2023-03-23T22:16:10.038Z,58.67
2023-03-23T22:18:39.360Z,58.70
2023-03-23T22:21:07.794Z,58.54
2023-03-23T22:23:36.077Z,58.66
2023-03-23T22:26:04.392Z,58.51
2023-03-23T22:28:32.661Z,58.68
2023-03-23T22:31:06.257Z,58.81
2023-03-23T22:33:34.627Z,58.65
2023-03-23T22:36:06.699Z,58.43
2023-03-23T22:38:34.807Z,58.50
2023-03-23T22:41:04.649Z,58.55
2023-03-23T22:43:32.827Z,58.36
2023-03-23T22:46:01.060Z,58.54
2023-03-23T22:48:29.365Z,58.52
2023-03-23T22:50:58.477Z,58.49
2023-03-23T22:53:27.738Z,58.36
2023-03-23T22:55:56.916Z,58.54
2023-03-23T22:58:24.971Z,58.30
2023-03-23T23:00:56.999Z,58.45
2023-03-23T23:03:25.025Z,58.48
2023-03-23T23:05:53.140Z,58.18
2023-03-23T23:08:21.235Z,58.18
2023-03-23T23:10:51.698Z,57.93
2023-03-23T23:13:19.889Z,58.17
2023-03-23T23:15:49.028Z,58.19
2023-03-23T23:18:17.100Z,57.98
2023-03-23T23:20:45.385Z,57.72
2023-03-23T23:23:13.381Z,57.99
2023-03-23T23:25:41.660Z,58.04
2023-03-23T23:28:10.957Z,58.06
2023-03-23T23:30:38.893Z,57.83
2023-03-23T23:33:07.480Z,57.91
2023-03-23T23:35:37.024Z,57.74
2023-03-23T23:38:04.973Z,57.66
2023-03-23T23:40:33.057Z,57.71
2023-03-23T23:43:00.938Z,57.84
2023-03-23T23:45:30.246Z,57.86
2023-03-23T23:47:58.441Z,57.67
2023-03-23T23:50:26.516Z,57.72
2023-03-23T23:52:54.499Z,57.50
2023-03-23T23:55:22.606Z,57.50
2023-03-23T23:57:50.540Z,57.59
